createdAt,value
2018-11-28T00:00:20.675Z,10.77
2018-11-28T00:02:49.396Z,11.80
2018-11-28T00:05:17.858Z,11.57
2018-11-28T00:07:46.151Z,11.48
2018-11-28T00:10:15.014Z,11.20
2018-11-28T00:12:43.331Z,10.50
2018-11-28T00:15:12.715Z,10.80
2018-11-28T00:17:41.804Z,10.67
2018-11-28T00:20:19.840Z,10.40
2018-11-28T00:22:48.410Z,12.17
2018-11-28T00:25:17.951Z,11.20
2018-11-28T00:27:46.272Z,11.47
2018-11-28T00:30:20.227Z,11.17
2018-11-28T00:32:48.911Z,11.73
2018-11-28T00:35:18.632Z,12.03
2018-11-28T00:37:47.061Z,11.90
2018-11-28T00:40:16.628Z,11.17
2018-11-28T00:42:44.952Z,11.43
2018-11-28T00:45:15.359Z,12.60
2018-11-28T00:47:43.684Z,11.70
2018-11-28T00:50:13.074Z,12.33
2018-11-28T00:52:41.420Z,12.33
2018-11-28T00:55:12.915Z,11.00
2018-11-28T00:57:41.341Z,12.60
2018-11-28T01:00:17.515Z,11.40
2018-11-28T01:02:46.107Z,12.30
2018-11-28T01:05:14.602Z,11.43
2018-11-28T01:07:43.436Z,11.80
2018-11-28T01:10:12.968Z,12.20
2018-11-28T01:12:41.309Z,12.57
2018-11-28T01:15:12.556Z,11.80
2018-11-28T01:17:40.886Z,12.07
2018-11-28T01:20:13.079Z,11.33
2018-11-28T01:22:41.435Z,12.07
2018-11-28T01:25:11.197Z,11.70
2018-11-28T01:27:39.489Z,12.63
2018-11-28T01:30:10.321Z,11.90
2018-11-28T01:32:38.623Z,12.67
2018-11-28T01:35:08.545Z,11.53
2018-11-28T01:37:37.540Z,12.28
2018-11-28T01:40:08.205Z,11.07
2018-11-28T01:42:36.494Z,12.57
2018-11-28T01:45:05.469Z,13.03
2018-11-28T01:47:33.756Z,11.90
2018-11-28T01:50:02.054Z,11.70
2018-11-28T01:52:30.966Z,12.75
2018-11-28T01:54:59.283Z,11.87
2018-11-28T01:57:27.583Z,11.78
2018-11-28T01:59:55.928Z,12.33
2018-11-28T02:02:24.235Z,11.57
2018-11-28T02:04:52.567Z,11.37
2018-11-28T02:07:20.909Z,11.50
2018-11-28T02:09:49.208Z,11.57
2018-11-28T02:12:17.511Z,12.00
2018-11-28T02:14:45.861Z,10.63
2018-11-28T02:17:14.154Z,11.53
2018-11-28T02:19:42.470Z,10.20
2018-11-28T02:22:10.797Z,10.50
2018-11-28T02:24:39.124Z,11.00
2018-11-28T02:27:07.439Z,11.93
2018-11-28T02:29:35.796Z,11.53
2018-11-28T02:32:04.118Z,11.00
2018-11-28T02:34:32.418Z,10.90
2018-11-28T02:37:00.735Z,11.13
2018-11-28T02:39:29.057Z,10.47
2018-11-28T02:41:57.629Z,9.83
2018-11-28T02:44:26.105Z,10.57
2018-11-28T02:46:54.393Z,10.40
2018-11-28T02:49:22.720Z,11.13
2018-11-28T02:51:50.989Z,11.97
2018-11-28T02:54:19.261Z,10.80
2018-11-28T02:56:47.551Z,10.30
2018-11-28T02:59:15.822Z,10.63
2018-11-28T03:01:44.058Z,9.87
2018-11-28T03:04:12.290Z,10.30
2018-11-28T03:06:40.514Z,9.63
2018-11-28T03:09:09.252Z,10.63
2018-11-28T03:11:38.519Z,10.33
2018-11-28T03:14:06.998Z,9.70
2018-11-28T03:16:35.259Z,9.83
2018-11-28T03:19:03.528Z,10.75
2018-11-28T03:21:31.757Z,10.37
2018-11-28T03:24:00.263Z,10.10
2018-11-28T03:26:28.491Z,10.70
2018-11-28T03:28:56.769Z,10.47
2018-11-28T03:31:25.014Z,11.17
2018-11-28T03:33:53.283Z,10.67
2018-11-28T03:36:21.527Z,10.27
2018-11-28T03:38:49.826Z,10.43
2018-11-28T03:41:18.634Z,10.13
2018-11-28T03:43:46.937Z,10.07
2018-11-28T03:46:15.215Z,10.80
2018-11-28T03:48:43.465Z,10.63
2018-11-28T03:51:11.714Z,10.27
2018-11-28T03:53:40.021Z,10.97
2018-11-28T03:56:08.307Z,10.03
2018-11-28T03:58:36.551Z,10.43
2018-11-28T04:01:04.996Z,11.80
2018-11-28T04:03:33.238Z,11.17
2018-11-28T04:06:01.494Z,11.37
2018-11-28T04:08:30.141Z,11.27
2018-11-28T04:10:58.414Z,10.87
2018-11-28T04:13:26.677Z,10.63
2018-11-28T04:15:54.904Z,10.50
2018-11-28T04:18:23.657Z,11.20
2018-11-28T04:20:51.886Z,10.90
2018-11-28T04:23:20.159Z,11.93
2018-11-28T04:25:48.422Z,11.20
2018-11-28T04:28:16.646Z,10.87
2018-11-28T04:30:44.906Z,10.60
2018-11-28T04:33:13.162Z,10.60
2018-11-28T04:35:41.402Z,11.00
2018-11-28T04:38:09.646Z,10.83
2018-11-28T04:40:37.974Z,10.75
2018-11-28T04:43:06.200Z,10.73
2018-11-28T04:45:34.495Z,11.03
2018-11-28T04:48:03.224Z,9.87
2018-11-28T04:50:32.421Z,10.33
2018-11-28T04:53:00.891Z,10.90
2018-11-28T04:55:29.139Z,10.87
2018-11-28T04:57:57.426Z,9.60
2018-11-28T05:00:26.365Z,9.57
2018-11-28T05:02:55.677Z,10.57
2018-11-28T05:05:23.951Z,10.70
2018-11-28T05:07:52.771Z,11.20
2018-11-28T05:10:25.574Z,10.43
2018-11-28T05:12:54.578Z,9.83
2018-11-28T05:15:23.931Z,10.40
2018-11-28T05:17:53.531Z,10.67
2018-11-28T05:20:25.119Z,11.17
2018-11-28T05:22:53.370Z,9.63
2018-11-28T05:25:22.586Z,9.90
2018-11-28T05:27:52.012Z,9.60
2018-11-28T05:30:35.760Z,9.98
2018-11-28T05:33:03.456Z,10.90
2018-11-28T05:35:33.944Z,10.50
2018-11-28T05:38:03.718Z,10.10
2018-11-28T05:40:31.982Z,9.83
2018-11-28T05:43:00.217Z,10.47
2018-11-28T05:45:28.553Z,10.97
2018-11-28T05:47:56.762Z,10.97
2018-11-28T05:50:25.075Z,10.63
2018-11-28T05:52:53.306Z,10.33
2018-11-28T05:55:23.277Z,10.60
2018-11-28T05:57:51.547Z,11.67
2018-11-28T06:00:36.079Z,10.37
2018-11-28T06:03:04.997Z,9.57
2018-11-28T06:05:33.467Z,10.72
2018-11-28T06:08:02.041Z,10.67
2018-11-28T06:10:30.296Z,11.77
2018-11-28T06:12:58.582Z,10.20
2018-11-28T06:15:26.867Z,10.40
2018-11-28T06:17:55.187Z,11.60
2018-11-28T06:20:23.438Z,10.97
2018-11-28T06:22:51.663Z,10.47
2018-11-28T06:25:20.403Z,10.57
2018-11-28T06:27:48.670Z,10.60
2018-11-28T06:30:17.790Z,10.10
2018-11-28T06:32:51.187Z,10.70
2018-11-28T06:35:14.612Z,10.07
2018-11-28T06:37:43.323Z,10.50
2018-11-28T06:40:15.568Z,10.20
2018-11-28T06:42:47.649Z,10.97
2018-11-28T06:45:20.277Z,9.93
2018-11-28T06:47:48.534Z,10.60
2018-11-28T06:50:17.850Z,11.60
2018-11-28T06:52:48.054Z,10.93
2018-11-28T06:55:20.486Z,10.97
2018-11-28T06:57:48.795Z,10.33
2018-11-28T07:00:19.595Z,10.67
2018-11-28T07:02:48.478Z,11.07
2018-11-28T07:05:16.751Z,11.13
2018-11-28T07:07:45.157Z,9.90
2018-11-28T07:10:14.710Z,11.40
2018-11-28T07:12:42.989Z,11.77
2018-11-28T07:15:12.325Z,11.43
2018-11-28T07:17:41.191Z,10.63
2018-11-28T07:20:11.749Z,10.53
2018-11-28T07:22:40.013Z,11.10
2018-11-28T07:25:12.673Z,10.97
2018-11-28T07:27:45.042Z,10.43
2018-11-28T07:30:12.378Z,10.90
2018-11-28T07:32:40.717Z,10.53
2018-11-28T07:35:09.759Z,9.77
2018-11-28T07:37:38.637Z,10.40
2018-11-28T07:40:19.597Z,10.00
2018-11-28T07:42:54.658Z,10.30
2018-11-28T07:45:22.940Z,10.23
2018-11-28T07:47:51.165Z,10.17
2018-11-28T07:50:19.440Z,11.03
2018-11-28T07:52:47.707Z,10.20
2018-11-28T07:55:15.968Z,9.60
2018-11-28T07:57:44.275Z,10.33
2018-11-28T08:00:13.856Z,11.70
2018-11-28T08:02:42.497Z,10.97
2018-11-28T08:05:11.377Z,10.43
2018-11-28T08:07:39.623Z,10.73
2018-11-28T08:10:21.928Z,10.40
2018-11-28T08:12:54.283Z,10.13
2018-11-28T08:15:22.538Z,10.53
2018-11-28T08:17:50.939Z,10.43
2018-11-28T08:20:19.203Z,12.17
2018-11-28T08:22:47.458Z,10.73
2018-11-28T08:25:16.635Z,11.47
2018-11-28T08:27:46.151Z,11.77
2018-11-28T08:30:19.907Z,11.13
2018-11-28T08:32:47.869Z,12.27
2018-11-28T08:35:16.155Z,11.70
2018-11-28T08:37:44.389Z,11.70
2018-11-28T08:40:13.918Z,12.83
2018-11-28T08:42:42.245Z,12.33
2018-11-28T08:45:13.255Z,12.27
2018-11-28T08:47:41.517Z,11.83
2018-11-28T08:50:18.284Z,12.07
2018-11-28T08:52:46.600Z,11.97
2018-11-28T08:55:14.977Z,11.57
2018-11-28T08:57:43.294Z,12.50
2018-11-28T09:00:16.784Z,11.03
2018-11-28T09:02:46.035Z,13.07
2018-11-28T09:05:14.702Z,11.73
2018-11-28T09:07:43.005Z,12.77
2018-11-28T09:10:13.465Z,13.00
2018-11-28T09:12:41.770Z,12.87
2018-11-28T09:15:12.165Z,13.73
2018-11-28T09:17:40.597Z,12.83
2018-11-28T09:20:10.282Z,14.00
2018-11-28T09:22:38.619Z,14.07
2018-11-28T09:25:08.764Z,15.30
2018-11-28T09:27:37.059Z,16.00
2018-11-28T09:30:08.575Z,15.53
2018-11-28T09:32:36.823Z,15.53
2018-11-28T09:35:06.621Z,16.17
2018-11-28T09:37:34.873Z,16.37
2018-11-28T09:40:04.307Z,16.77
2018-11-28T09:42:32.579Z,16.73
2018-11-28T09:45:00.842Z,17.00
2018-11-28T09:47:29.157Z,17.10
2018-11-28T09:49:57.420Z,17.43
2018-11-28T09:52:25.667Z,18.00
2018-11-28T09:54:53.911Z,17.00
2018-11-28T09:57:22.801Z,16.87
2018-11-28T09:59:51.053Z,17.47
2018-11-28T10:02:19.350Z,17.87
2018-11-28T10:04:47.599Z,17.43
2018-11-28T10:07:15.899Z,18.40
2018-11-28T10:09:44.195Z,18.73
2018-11-28T10:12:12.521Z,19.23
2018-11-28T10:14:40.788Z,18.97
2018-11-28T10:17:09.065Z,19.73
2018-11-28T10:19:37.297Z,20.27
2018-11-28T10:22:05.955Z,21.40
2018-11-28T10:24:34.444Z,19.90
2018-11-28T10:27:02.531Z,19.93
2018-11-28T10:29:30.791Z,22.97
2018-11-28T10:31:59.123Z,20.97
2018-11-28T10:34:29.576Z,20.40
2018-11-28T10:36:55.691Z,21.37
2018-11-28T10:39:23.907Z,20.93
2018-11-28T10:41:52.210Z,21.07
2018-11-28T10:44:20.470Z,22.37
2018-11-28T10:46:48.725Z,21.30
2018-11-28T10:49:16.991Z,21.97
2018-11-28T10:51:50.215Z,23.23
2018-11-28T10:54:13.562Z,21.60
2018-11-28T10:56:41.799Z,23.03
2018-11-28T10:59:10.230Z,22.93
2018-11-28T11:01:44.043Z,24.18
2018-11-28T11:04:14.501Z,24.07
2018-11-28T11:06:48.518Z,22.30
2018-11-28T11:10:20.230Z,22.07
2018-11-28T11:12:53.929Z,25.27
2018-11-28T11:15:22.146Z,24.30
2018-11-28T11:17:50.962Z,25.40
2018-11-28T11:20:19.221Z,25.10
2018-11-28T11:22:47.494Z,26.30
2018-11-28T11:25:15.730Z,26.60
2018-11-28T11:27:44.003Z,27.73
2018-11-28T11:30:12.271Z,27.60
2018-11-28T11:32:40.603Z,29.33
2018-11-28T11:35:09.645Z,29.23
2018-11-28T11:37:37.972Z,29.37
2018-11-28T11:40:09.317Z,29.93
2018-11-28T11:42:37.580Z,28.33
2018-11-28T11:45:08.086Z,27.90
2018-11-28T11:47:36.379Z,28.90
2018-11-28T11:50:07.290Z,29.73
2018-11-28T11:52:35.588Z,29.60
2018-11-28T11:55:04.125Z,29.27
2018-11-28T11:57:32.418Z,31.10
2018-11-28T12:00:02.010Z,28.93
2018-11-28T12:02:28.919Z,29.77
2018-11-28T12:04:57.154Z,30.37
2018-11-28T12:07:25.415Z,30.40
2018-11-28T12:09:53.807Z,29.97
2018-11-28T12:12:22.088Z,31.10
2018-11-28T12:14:50.349Z,29.77
2018-11-28T12:17:18.621Z,29.83
2018-11-28T12:19:46.929Z,28.97
2018-11-28T12:22:15.231Z,30.43
2018-11-28T12:24:43.560Z,30.57
2018-11-28T12:27:11.820Z,29.27
2018-11-28T12:29:40.091Z,31.57
2018-11-28T12:32:08.386Z,30.03
2018-11-28T12:34:36.651Z,30.00
2018-11-28T12:37:04.947Z,29.30
2018-11-28T12:39:33.229Z,29.47
2018-11-28T12:42:01.497Z,29.07
2018-11-28T12:44:29.728Z,27.87
2018-11-28T12:46:58.033Z,27.00
2018-11-28T12:49:26.314Z,27.47
2018-11-28T12:51:54.611Z,28.03
2018-11-28T12:54:22.874Z,26.63
2018-11-28T12:56:51.168Z,27.07
2018-11-28T12:59:19.743Z,28.63
2018-11-28T13:01:47.966Z,28.77
2018-11-28T13:04:16.282Z,27.43
2018-11-28T13:06:44.592Z,28.77
2018-11-28T13:09:12.804Z,27.13
2018-11-28T13:11:41.123Z,30.03
2018-11-28T13:14:09.334Z,27.17
2018-11-28T13:16:37.586Z,25.73
2018-11-28T13:19:05.829Z,26.73
2018-11-28T13:21:34.704Z,27.07
2018-11-28T13:24:02.961Z,26.37
2018-11-28T13:26:31.241Z,24.90
2018-11-28T13:28:59.497Z,26.23
2018-11-28T13:31:27.923Z,27.27
2018-11-28T13:33:56.215Z,27.53
2018-11-28T13:36:24.497Z,25.63
2018-11-28T13:38:52.836Z,26.30
2018-11-28T13:41:21.116Z,27.57
2018-11-28T13:43:49.864Z,25.30
2018-11-28T13:46:18.453Z,23.30
2018-11-28T13:48:46.552Z,26.13
2018-11-28T13:51:14.906Z,27.53
2018-11-28T13:53:43.168Z,24.80
2018-11-28T13:58:39.748Z,26.33
2018-11-28T14:01:08.008Z,25.17
2018-11-28T14:03:36.278Z,26.30
2018-11-28T14:06:04.855Z,25.83
2018-11-28T14:08:33.096Z,24.70
2018-11-28T14:11:01.330Z,24.47
2018-11-28T14:13:29.610Z,25.87
2018-11-28T14:15:57.888Z,24.33
2018-11-28T14:18:26.860Z,24.20
2018-11-28T14:20:55.115Z,24.67
2018-11-28T14:23:23.336Z,24.90
2018-11-28T14:25:51.616Z,22.23
2018-11-28T14:28:19.892Z,23.10
2018-11-28T14:30:48.704Z,23.27
2018-11-28T14:33:16.999Z,24.63
2018-11-28T14:35:45.317Z,23.70
2018-11-28T14:38:13.595Z,22.43
2018-11-28T14:40:41.963Z,23.10
2018-11-28T14:43:10.371Z,23.20
2018-11-28T14:45:38.618Z,22.90
2018-11-28T14:48:06.880Z,22.67
2018-11-28T14:50:35.251Z,23.47
2018-11-28T14:53:03.823Z,22.93
2018-11-28T14:55:33.683Z,21.37
2018-11-28T14:58:01.998Z,22.30
2018-11-28T15:00:31.024Z,23.27
2018-11-28T15:03:02.666Z,22.30
2018-11-28T15:08:22.156Z,20.93
2018-11-28T15:11:21.584Z,20.27
2018-11-28T15:13:49.786Z,22.60
2018-11-28T15:16:18.002Z,22.43
2018-11-28T15:18:46.867Z,21.00
2018-11-28T15:21:15.086Z,21.90
2018-11-28T15:23:43.364Z,21.33
2018-11-28T15:26:11.987Z,20.53
2018-11-28T15:28:40.565Z,21.47
2018-11-28T15:31:08.526Z,22.07
2018-11-28T15:33:36.788Z,22.17
2018-11-28T15:36:05.066Z,21.87
2018-11-28T15:38:33.383Z,20.88
2018-11-28T15:41:01.635Z,21.90
2018-11-28T15:43:29.974Z,21.83
2018-11-28T15:45:58.329Z,21.70
2018-11-28T15:48:26.581Z,22.00
2018-11-28T15:50:54.852Z,21.43
2018-11-28T15:53:23.176Z,21.97
2018-11-28T15:55:51.466Z,22.13
2018-11-28T15:58:19.740Z,20.93
2018-11-28T16:00:48.058Z,20.73
2018-11-28T16:03:16.363Z,20.50
2018-11-28T16:05:44.852Z,22.50
2018-11-28T16:08:13.231Z,20.37
2018-11-28T16:10:43.356Z,21.83
2018-11-28T16:13:14.002Z,21.63
2018-11-28T16:15:47.318Z,21.27
2018-11-28T16:18:15.680Z,21.50
2018-11-28T16:20:43.968Z,22.17
2018-11-28T16:23:12.301Z,21.93
2018-11-28T16:25:40.582Z,23.23
2018-11-28T16:28:10.038Z,21.93
2018-11-28T16:30:38.309Z,22.00
2018-11-28T16:33:07.136Z,23.57
2018-11-28T16:35:36.314Z,21.83
2018-11-28T16:38:04.744Z,22.43
2018-11-28T16:40:33.109Z,22.47
2018-11-28T16:43:01.489Z,22.20
2018-11-28T16:45:29.832Z,22.07
2018-11-28T16:47:58.266Z,21.73
2018-11-28T16:50:26.597Z,23.23
2018-11-28T16:52:54.967Z,22.03
2018-11-28T16:55:23.231Z,23.20
2018-11-28T16:57:52.736Z,22.37
2018-11-28T17:00:24.144Z,22.87
2018-11-28T17:02:53.871Z,22.33
2018-11-28T17:05:22.869Z,22.60
2018-11-28T17:07:52.463Z,22.20
2018-11-28T17:10:23.059Z,22.60
2018-11-28T17:12:51.667Z,21.90
2018-11-28T17:15:20.344Z,22.33
2018-11-28T17:17:48.691Z,23.77
2018-11-28T17:20:20.649Z,23.03
2018-11-28T17:22:49.839Z,24.03
2018-11-28T17:25:20.303Z,23.70
2018-11-28T17:27:48.741Z,23.37
2018-11-28T17:30:19.095Z,22.07
2018-11-28T17:32:47.590Z,21.77
2018-11-28T17:35:16.047Z,23.87
2018-11-28T17:37:44.339Z,23.00
2018-11-28T17:40:18.915Z,21.07
2018-11-28T17:42:49.450Z,23.00
2018-11-28T17:45:18.497Z,23.43
2018-11-28T17:47:46.877Z,22.70
2018-11-28T17:50:18.968Z,24.13
2018-11-28T17:52:54.932Z,23.10
2018-11-28T17:55:23.648Z,23.37
2018-11-28T17:57:52.024Z,22.53
2018-11-28T18:00:21.366Z,23.80
2018-11-28T18:02:49.727Z,23.37
2018-11-28T18:05:18.050Z,23.90
2018-11-28T18:07:46.379Z,23.33
2018-11-28T18:10:16.979Z,22.63
2018-11-28T18:13:00.844Z,23.10
2018-11-28T18:15:29.170Z,21.63
2018-11-28T18:17:57.706Z,22.73
2018-11-28T18:20:26.067Z,21.60
2018-11-28T18:22:55.031Z,23.03
2018-11-28T18:25:24.194Z,21.07
2018-11-28T18:27:53.126Z,22.30
2018-11-28T18:30:21.610Z,21.17
2018-11-28T18:32:49.939Z,23.27
2018-11-28T18:35:18.318Z,21.10
2018-11-28T18:37:46.839Z,23.60
2018-11-28T18:40:15.503Z,23.20
2018-11-28T18:42:44.120Z,22.47
2018-11-28T18:45:14.461Z,22.77
2018-11-28T18:47:42.870Z,23.93
2018-11-28T18:50:12.589Z,22.30
2018-11-28T18:52:41.047Z,22.70
2018-11-28T18:55:16.732Z,21.68
2018-11-28T18:57:44.264Z,24.67
2018-11-28T19:00:16.736Z,23.30
2018-11-28T19:02:45.421Z,22.60
2018-11-28T19:05:13.861Z,23.70
2018-11-28T19:07:42.512Z,21.43
2018-11-28T19:10:17.937Z,23.97
2018-11-28T19:12:47.284Z,23.63
2018-11-28T19:15:19.846Z,22.83
2018-11-28T19:17:48.964Z,23.00
2018-11-28T19:20:19.753Z,23.03
2018-11-28T19:22:49.132Z,22.23
2018-11-28T19:25:19.466Z,24.53
2018-11-28T19:27:48.332Z,24.07
2018-11-28T19:30:22.941Z,23.80
2018-11-28T19:32:51.373Z,23.60
2018-11-28T19:35:21.693Z,23.80
2018-11-28T19:37:50.778Z,23.43
2018-11-28T19:40:22.515Z,24.30
2018-11-28T19:42:50.852Z,23.63
2018-11-28T19:45:19.238Z,21.67
2018-11-28T19:47:48.261Z,23.87
2018-11-28T19:50:18.653Z,22.67
2018-11-28T19:52:47.341Z,24.00
2018-11-28T19:55:15.800Z,24.10
2018-11-28T19:57:45.441Z,24.17
2018-11-28T20:00:16.490Z,22.47
2018-11-28T20:02:45.513Z,23.37
2018-11-28T20:05:16.126Z,24.23
2018-11-28T20:07:47.661Z,22.23
2018-11-28T20:10:17.213Z,23.93
2018-11-28T20:12:45.991Z,23.00
2018-11-28T20:15:19.398Z,23.27
2018-11-28T20:17:48.170Z,23.10
2018-11-28T20:20:17.868Z,23.37
2018-11-28T20:22:46.481Z,23.57
2018-11-28T20:25:15.784Z,23.50
2018-11-28T20:27:45.730Z,24.20
2018-11-28T20:30:17.507Z,23.13
2018-11-28T20:32:46.123Z,23.73
2018-11-28T20:35:17.389Z,23.70
2018-11-28T20:37:46.947Z,24.30
2018-11-28T20:40:16.510Z,21.60
2018-11-28T20:42:47.612Z,22.90
2018-11-28T20:45:16.404Z,22.77
2018-11-28T20:47:44.862Z,23.33
2018-11-28T20:50:25.570Z,23.73
2018-11-28T20:52:57.988Z,24.17
2018-11-28T20:55:26.384Z,24.00
2018-11-28T20:57:55.727Z,23.80
2018-11-28T21:00:25.797Z,21.20
2018-11-28T21:02:55.291Z,23.27
2018-11-28T21:05:23.762Z,23.17
2018-11-28T21:07:52.457Z,23.17
2018-11-28T21:10:26.445Z,22.87
2018-11-28T21:12:56.829Z,23.40
2018-11-28T21:15:25.172Z,22.67
2018-11-28T21:17:53.501Z,23.70
2018-11-28T21:20:22.634Z,24.33
2018-11-28T21:22:52.382Z,23.67
2018-11-28T21:25:21.374Z,22.20
2018-11-28T21:27:51.012Z,22.80
2018-11-28T21:30:20.114Z,22.43
2018-11-28T21:32:49.638Z,23.50
2018-11-28T21:35:24.146Z,22.60
2018-11-28T21:37:52.507Z,22.80
2018-11-28T21:40:20.968Z,21.60
2018-11-28T21:42:49.358Z,22.13
2018-11-28T21:45:18.741Z,23.10
2018-11-28T21:47:47.160Z,22.40
2018-11-28T21:50:16.452Z,22.60
2018-11-28T21:52:44.862Z,23.20
2018-11-28T21:55:14.437Z,23.90
2018-11-28T21:57:42.751Z,22.20
2018-11-28T22:00:17.606Z,23.60
2018-11-28T22:02:46.050Z,23.40
2018-11-28T22:05:15.251Z,23.47
2018-11-28T22:07:43.572Z,22.80
2018-11-28T22:10:16.737Z,22.53
2018-11-28T22:12:45.102Z,23.63
2018-11-28T22:15:15.028Z,22.90
2018-11-28T22:17:45.301Z,22.73
2018-11-28T22:20:14.298Z,23.93
2018-11-28T22:22:42.799Z,23.70
2018-11-28T22:25:27.612Z,24.10
2018-11-28T22:27:56.015Z,24.90
2018-11-28T22:30:27.338Z,23.07
2018-11-28T22:32:56.671Z,23.47
2018-11-28T22:35:25.052Z,23.33
2018-11-28T22:37:53.375Z,23.43
2018-11-28T22:40:22.890Z,22.87
2018-11-28T22:42:51.169Z,23.37
2018-11-28T22:45:21.502Z,23.47
2018-11-28T22:47:49.776Z,23.50
2018-11-28T22:50:18.035Z,24.83
2018-11-28T22:52:46.333Z,22.67
2018-11-28T22:55:15.346Z,24.03
2018-11-28T22:57:43.606Z,23.57
2018-11-28T23:00:15.022Z,23.63
2018-11-28T23:03:02.650Z,24.40
2018-11-28T23:05:32.079Z,24.00
2018-11-28T23:08:01.278Z,24.13
2018-11-28T23:10:29.547Z,23.40
2018-11-28T23:12:58.758Z,23.03
2018-11-28T23:15:27.004Z,23.93
2018-11-28T23:17:55.594Z,23.67
2018-11-28T23:20:23.670Z,23.90
2018-11-28T23:22:52.363Z,24.73
2018-11-28T23:25:20.634Z,23.13
2018-11-28T23:27:48.934Z,24.43
2018-11-28T23:30:18.079Z,22.90
2018-11-28T23:32:46.982Z,23.43
2018-11-28T23:35:15.283Z,23.83
2018-11-28T23:37:44.698Z,23.20
2018-11-28T23:40:17.296Z,24.13
2018-11-28T23:42:45.559Z,23.63
2018-11-28T23:45:14.323Z,22.97
2018-11-28T23:47:42.605Z,24.23
2018-11-28T23:50:12.078Z,23.03
2018-11-28T23:52:40.391Z,24.43
2018-11-28T23:55:20.635Z,24.07
2018-11-28T23:57:48.955Z,25.53
